Time;durP1;ratioP1;P1;durP2;ratioP2;P2;SDS_P1;SDS_P2;PMS_P1;PMS_P2;Temp;Humidity;BMP_temperature;BMP_pressure;BME280_temperature;BME280_humidity;BME280_pressure;Samples;Min_cycle;Max_cycle;Signal;HPM_P1;HPM_P2
2022/03/03 00:02:25;;;;;;;17.10;10.45;;;;;;;7.34;40.70;101938.00;5096421;28;20020;-65
2022/03/03 00:05:04;;;;;;;16.17;10.60;;;;;;;7.27;41.00;101939.47;5096204;28;20032;-65
2022/03/03 00:07:32;;;;;;;16.20;9.95;;;;;;;7.06;41.45;101936.81;5096264;28;20024;-65
2022/03/03 00:09:57;;;;;;;16.17;10.23;;;;;;;7.02;42.10;101946.31;5096412;28;20028;-65
2022/03/03 00:12:23;;;;;;;18.45;10.77;;;;;;;7.04;41.68;101946.38;5096233;28;20073;-66
2022/03/03 00:14:49;;;;;;;18.10;12.55;;;;;;;7.05;43.40;101942.03;5096587;28;20030;-66
2022/03/03 00:17:14;;;;;;;17.83;9.95;;;;;;;7.03;41.83;101942.88;5096457;28;20024;-65
2022/03/03 00:19:40;;;;;;;20.85;10.70;;;;;;;6.91;42.09;101939.69;5096602;28;20020;-66
2022/03/03 00:22:06;;;;;;;18.50;10.88;;;;;;;6.89;42.02;101937.81;5096339;28;20035;-66
2022/03/03 00:24:32;;;;;;;16.65;10.68;;;;;;;6.92;42.40;101935.34;5095957;28;20051;-65
2022/03/03 00:26:57;;;;;;;16.92;10.88;;;;;;;6.90;42.42;101930.03;5096288;28;20050;-65
2022/03/03 00:29:23;;;;;;;15.65;10.20;;;;;;;6.95;42.65;101935.47;5096303;28;20028;-66
2022/03/03 00:31:48;;;;;;;17.45;10.55;;;;;;;6.96;42.39;101934.63;5096285;28;20028;-64
2022/03/03 00:34:17;;;;;;;16.40;11.13;;;;;;;6.97;41.91;101937.31;5095969;28;20035;-65
2022/03/03 00:36:42;;;;;;;15.68;10.40;;;;;;;6.92;42.04;101936.22;5096019;28;20380;-65
2022/03/03 00:39:08;;;;;;;20.10;11.30;;;;;;;6.87;42.12;101936.88;5096011;28;20477;-66
2022/03/03 00:41:34;;;;;;;14.70;10.20;;;;;;;6.83;42.51;101925.34;5095996;28;20028;-65
2022/03/03 00:44:00;;;;;;;15.30;10.20;;;;;;;6.77;42.82;101930.34;5096209;28;20013;-65
2022/03/03 00:46:25;;;;;;;17.85;10.73;;;;;;;6.69;42.69;101922.13;5077776;28;20054;-65
2022/03/03 00:48:52;;;;;;;18.73;11.20;;;;;;;6.59;43.17;101919.00;5096013;28;20168;-65
2022/03/03 00:51:18;;;;;;;17.45;10.43;;;;;;;6.58;42.86;101919.84;5096524;28;20111;-65
2022/03/03 00:53:43;;;;;;;17.10;10.35;;;;;;;6.52;42.84;101917.84;5096544;28;20035;-65
2022/03/03 00:56:09;;;;;;;17.90;10.75;;;;;;;6.46;43.64;101915.84;5095540;28;20020;-65
2022/03/03 00:58:34;;;;;;;19.60;11.07;;;;;;;6.37;43.80;101918.03;5095945;28;20103;-65
2022/03/03 01:01:01;;;;;;;17.17;10.43;;;;;;;6.33;44.15;101918.75;5095900;28;20099;-65
2022/03/03 01:03:27;;;;;;;16.83;10.50;;;;;;;6.37;45.52;101920.66;5095498;28;20427;-66
2022/03/03 01:05:53;;;;;;;17.00;10.98;;;;;;;6.38;44.47;101918.94;5095494;28;20032;-66
2022/03/03 01:08:19;;;;;;;18.85;11.00;;;;;;;6.37;44.45;101915.44;5095495;28;20020;-66
2022/03/03 01:10:45;;;;;;;17.92;11.10;;;;;;;6.41;43.76;101914.72;5095502;28;20051;-65
2022/03/03 01:13:10;;;;;;;19.40;11.10;;;;;;;6.35;43.44;101918.84;5095448;28;20025;-66
2022/03/03 01:15:35;;;;;;;18.27;10.65;;;;;;;6.35;44.16;101914.47;5095403;28;20024;-65
2022/03/03 01:18:01;;;;;;;17.70;10.68;;;;;;;6.34;43.80;101915.31;5095331;28;20020;-66
2022/03/03 01:20:29;;;;;;;17.33;10.77;;;;;;;6.35;43.67;101903.97;5095141;28;20020;-66
2022/03/03 01:22:55;;;;;;;18.02;10.98;;;;;;;6.33;44.21;101907.34;5095179;28;20032;-66
2022/03/03 01:25:21;;;;;;;19.98;10.75;;;;;;;6.31;43.96;101912.53;5094816;28;20058;-65
2022/03/03 01:27:46;;;;;;;16.90;10.73;;;;;;;6.13;44.33;101899.47;5095410;28;20020;-65
2022/03/03 01:30:12;;;;;;;17.83;11.20;;;;;;;6.06;44.41;101913.13;5095944;28;20016;-65
2022/03/03 01:32:37;;;;;;;17.85;10.48;;;;;;;5.98;44.96;101912.78;5095688;28;20138;-65
2022/03/03 01:35:06;;;;;;;17.05;10.55;;;;;;;5.92;45.22;101898.50;5095672;28;20052;-65
2022/03/03 01:37:32;;;;;;;18.50;11.65;;;;;;;5.81;44.69;101907.53;5095128;28;20527;-66
2022/03/03 01:39:57;;;;;;;18.80;10.90;;;;;;;5.79;45.31;101902.25;5095064;28;20024;-66
2022/03/03 01:42:23;;;;;;;17.58;11.10;;;;;;;5.84;44.75;101898.09;5076615;28;20024;-65
2022/03/03 01:44:48;;;;;;;17.40;11.57;;;;;;;5.93;44.89;101889.78;5094698;28;20035;-65
2022/03/03 01:47:19;;;;;;;19.63;11.02;;;;;;;5.97;44.94;101883.88;5094725;28;20024;-65
2022/03/03 01:49:47;;;;;;;16.13;11.05;;;;;;;5.91;46.00;101888.78;5094730;28;20032;-65
2022/03/03 01:52:13;;;;;;;18.00;11.68;;;;;;;5.72;45.75;101881.78;5094656;28;20103;-65
2022/03/03 01:54:39;;;;;;;19.55;11.43;;;;;;;5.58;46.74;101889.00;5096360;28;20421;-65
2022/03/03 01:57:05;;;;;;;18.00;11.68;;;;;;;5.46;46.61;101883.16;5097157;28;20461;-65
2022/03/03 01:59:31;;;;;;;17.55;11.23;;;;;;;5.34;47.46;101878.22;5096266;28;20114;-65
2022/03/03 02:01:57;;;;;;;17.85;11.02;;;;;;;5.30;48.07;101878.00;5096986;28;20513;-65
2022/03/03 02:04:22;;;;;;;16.90;11.10;;;;;;;5.27;46.26;101874.44;5094370;28;20077;-65
2022/03/03 02:06:47;;;;;;;17.42;11.25;;;;;;;5.30;47.05;101864.91;5094437;28;20063;-65
2022/03/03 02:09:13;;;;;;;19.80;11.90;;;;;;;5.24;47.51;101862.91;5093459;28;20016;-66
2022/03/03 02:11:39;;;;;;;17.67;10.23;;;;;;;5.27;46.66;101871.81;5094283;28;20047;-65
2022/03/03 02:14:04;;;;;;;20.42;11.73;;;;;;;5.31;46.79;101866.69;5094299;28;20115;-65
2022/03/03 02:16:30;;;;;;;17.02;11.70;;;;;;;5.40;46.12;101872.41;5094169;28;20031;-65
2022/03/03 02:18:56;;;;;;;18.40;11.23;;;;;;;5.45;46.01;101866.56;5094249;28;20024;-65
2022/03/03 02:21:22;;;;;;;16.70;10.88;;;;;;;5.42;45.82;101847.16;5094018;28;20374;-65
2022/03/03 02:23:48;;;;;;;22.73;11.35;;;;;;;5.53;46.25;101856.44;5093969;28;20031;-65
2022/03/03 02:26:24;;;;;;;16.23;11.13;;;;;;;5.53;45.66;101856.44;5093995;28;20032;-64
2022/03/03 02:28:51;;;;;;;17.98;11.48;;;;;;;5.50;46.05;101861.53;5094011;28;20161;-65
2022/03/03 02:31:18;;;;;;;17.67;11.30;;;;;;;5.50;46.63;101854.56;5093890;28;20028;-65
2022/03/03 02:33:44;;;;;;;17.35;10.88;;;;;;;5.48;46.66;101850.97;5093762;28;20039;-65
2022/03/03 02:36:27;;;;;;;19.17;11.07;;;;;;;5.40;47.00;101848.81;5093616;28;20028;-65
2022/03/03 02:38:53;;;;;;;;;;;;;;;5.42;45.35;101855.91;5094208;28;20469;-65
2022/03/03 02:41:19;;;;;;;17.05;10.52;;;;;;;5.08;48.26;101852.47;5093722;28;19908;-65
2022/03/03 02:43:45;;;;;;;18.33;10.48;;;;;;;4.91;49.42;101855.16;5093525;28;20028;-65
2022/03/03 02:46:17;;;;;;;17.63;10.90;;;;;;;4.77;50.06;101864.06;5093873;28;20098;-65
2022/03/03 02:48:42;;;;;;;19.00;11.10;;;;;;;4.70;49.70;101857.59;5093503;28;20032;-65
2022/03/03 02:51:09;;;;;;;18.77;10.68;;;;;;;4.65;50.31;101848.63;5093581;28;20031;-65
2022/03/03 02:53:36;;;;;;;19.95;11.18;;;;;;;4.53;50.76;101843.66;5093548;28;20028;-65
2022/03/03 02:56:04;;;;;;;17.20;10.63;;;;;;;4.45;50.78;101850.25;5093441;28;20024;-64
2022/03/03 02:58:29;;;;;;;17.15;10.77;;;;;;;4.46;50.52;101841.56;5093603;28;20070;-65
2022/03/03 03:00:56;;;;;;;26.67;11.60;;;;;;;4.61;49.83;101853.63;5093529;28;20020;-64
2022/03/03 03:03:21;;;;;;;17.45;10.65;;;;;;;4.75;50.03;101853.53;5093414;28;20032;-65
2022/03/03 03:05:47;;;;;;;16.73;10.35;;;;;;;4.78;50.10;101852.75;5093377;28;20028;-65
2022/03/03 03:08:14;;;;;;;16.48;10.43;;;;;;;4.76;50.16;101850.06;5093537;28;20032;-65
2022/03/03 03:10:39;;;;;;;16.80;11.00;;;;;;;4.70;50.38;101854.97;5093267;28;20024;-65
2022/03/03 03:13:06;;;;;;;18.85;10.90;;;;;;;4.54;51.57;101849.81;5093242;28;20084;-65
2022/03/03 03:15:34;;;;;;;20.98;11.00;;;;;;;4.41;52.01;101843.06;5093222;28;20024;-65
2022/03/03 03:18:20;;;;;;;17.65;10.50;;;;;;;4.44;51.76;101847.53;5093147;28;20028;-66
2022/03/03 03:20:53;;;;;;;15.65;10.73;;;;;;;4.38;51.82;101850.72;5092907;28;20446;-65
2022/03/03 03:23:20;;;;;;;16.90;11.05;;;;;;;4.35;51.61;101841.81;5093028;28;20477;-65
2022/03/03 03:25:47;;;;;;;19.15;11.38;;;;;;;4.40;51.19;101840.34;5092927;28;20058;-65
2022/03/03 03:28:17;;;;;;;18.75;11.32;;;;;;;4.45;51.28;101829.31;5093420;28;20072;-65
2022/03/03 03:30:43;;;;;;;16.67;11.15;;;;;;;4.47;51.31;101822.41;5093011;28;20031;-65
2022/03/03 03:33:09;;;;;;;18.95;11.63;;;;;;;4.51;51.26;101821.75;5093144;28;20103;-64
2022/03/03 03:35:35;;;;;;;21.55;11.77;;;;;;;4.53;50.85;101833.19;5093033;28;20082;-64
2022/03/03 03:38:02;;;;;;;18.48;11.60;;;;;;;4.51;51.10;101834.84;5092920;28;20077;-65
2022/03/03 03:40:28;;;;;;;18.10;10.68;;;;;;;4.52;51.27;101828.78;5093162;28;20024;-65
2022/03/03 03:42:53;;;;;;;17.08;11.18;;;;;;;4.47;51.25;101821.53;5093196;28;20020;-65
2022/03/03 03:45:19;;;;;;;20.20;11.27;;;;;;;4.45;51.06;101821.47;5093138;28;20380;-65
2022/03/03 03:47:44;;;;;;;18.33;11.18;;;;;;;4.50;50.84;101817.34;5093146;28;20024;-65
2022/03/03 03:50:12;;;;;;;17.55;11.18;;;;;;;4.60;51.60;101821.31;5093158;28;20093;-64
2022/03/03 03:52:39;;;;;;;19.27;10.90;;;;;;;4.64;50.81;101819.75;5092735;28;20146;-65
2022/03/03 03:55:07;;;;;;;20.02;11.45;;;;;;;4.65;50.48;101811.06;5092893;28;20052;-65
2022/03/03 03:57:33;;;;;;;16.45;10.85;;;;;;;4.67;50.28;101810.34;5092879;28;20057;-65
2022/03/03 03:59:59;;;;;;;16.88;10.77;;;;;;;4.60;50.65;101812.56;5092824;28;20110;-65
2022/03/03 04:02:24;;;;;;;18.52;11.18;;;;;;;4.39;51.56;101812.38;5092731;28;20498;-65
2022/03/03 04:04:49;;;;;;;16.98;11.43;;;;;;;4.23;51.71;101814.19;5092729;28;20499;-65
2022/03/03 04:07:15;;;;;;;21.15;11.95;;;;;;;4.16;51.26;101811.22;5092685;28;20036;-65
2022/03/03 04:09:41;;;;;;;20.77;11.63;;;;;;;4.19;51.67;101813.97;5092857;28;20024;-65
2022/03/03 04:12:07;;;;;;;19.95;12.15;;;;;;;4.23;51.49;101808.06;5092711;28;20024;-65
2022/03/03 04:14:33;;;;;;;19.02;11.70;;;;;;;4.30;50.42;101815.41;5092721;28;20070;-65
2022/03/03 04:17:00;;;;;;;18.27;11.13;;;;;;;4.28;50.64;101811.81;5092914;28;20430;-65
2022/03/03 04:19:26;;;;;;;18.63;11.25;;;;;;;4.31;50.95;101816.31;5092579;28;20457;-64
2022/03/03 04:21:52;;;;;;;19.15;11.43;;;;;;;4.27;50.11;101802.16;5092614;28;20024;-65
2022/03/03 04:24:17;;;;;;;19.52;11.18;;;;;;;4.34;51.06;101801.69;5092163;28;20063;-65
2022/03/03 04:26:43;;;;;;;19.80;11.77;;;;;;;4.37;51.02;101807.06;5092534;28;20032;-65
2022/03/03 04:29:08;;;;;;;18.60;11.23;;;;;;;4.40;51.06;101794.13;5092591;28;20035;-65
2022/03/03 04:31:34;;;;;;;18.70;11.93;;;;;;;4.40;50.22;101798.47;5094004;28;20020;-65
2022/03/03 04:33:59;;;;;;;19.20;11.48;;;;;;;4.39;50.59;101794.06;5096259;28;20024;-65
2022/03/03 04:36:25;;;;;;;19.50;11.35;;;;;;;4.38;50.70;101787.94;5096328;28;20032;-65
2022/03/03 04:38:51;;;;;;;20.67;11.90;;;;;;;4.35;50.16;101794.72;5096084;28;20493;-65
2022/03/03 04:41:17;;;;;;;21.48;11.18;;;;;;;4.33;50.33;101785.91;5096121;28;20548;-65
2022/03/03 04:43:43;;;;;;;18.77;11.80;;;;;;;4.37;50.45;101780.91;5096015;28;20155;-65
2022/03/03 04:46:08;;;;;;;18.00;11.73;;;;;;;4.40;50.20;101777.53;5095991;28;20026;-65
2022/03/03 04:48:34;;;;;;;18.30;11.07;;;;;;;4.38;50.18;101773.97;5095849;28;20108;-65
2022/03/03 04:51:06;;;;;;;19.15;10.95;;;;;;;4.37;50.59;101778.28;5095599;28;20028;-65
2022/03/03 04:53:31;;;;;;;18.97;11.43;;;;;;;4.40;50.79;101767.06;5095584;28;20075;-65
2022/03/03 04:55:57;;;;;;;18.73;11.80;;;;;;;4.44;51.23;101774.25;5095785;28;20473;-65
2022/03/03 04:58:24;;;;;;;20.77;11.05;;;;;;;4.47;50.92;101777.03;5095772;28;20020;-64
2022/03/03 05:00:51;;;;;;;17.65;11.02;;;;;;;4.46;51.14;101773.53;5095654;28;20492;-65
2022/03/03 05:03:16;;;;;;;18.70;11.60;;;;;;;4.46;51.07;101775.25;5095424;28;20469;-65
2022/03/03 05:05:42;;;;;;;18.23;11.23;;;;;;;4.42;50.42;101768.06;5095692;28;20024;-65
2022/03/03 05:08:08;;;;;;;20.15;11.85;;;;;;;4.40;50.22;101778.44;5096334;28;20085;-65
2022/03/03 05:10:33;;;;;;;20.85;11.50;;;;;;;4.40;50.21;101782.78;5096221;28;20028;-64
2022/03/03 05:12:59;;;;;;;17.30;11.63;;;;;;;4.35;51.16;101786.88;5095832;28;20114;-65
2022/03/03 05:15:25;;;;;;;19.25;11.48;;;;;;;4.32;50.90;101784.97;5095650;28;20034;-65
2022/03/03 05:17:50;;;;;;;16.80;11.00;;;;;;;4.27;50.15;101782.13;5095244;28;20024;-65
2022/03/03 05:20:16;;;;;;;19.80;11.95;;;;;;;4.19;50.68;101782.56;5095302;28;20024;-64
2022/03/03 05:22:42;;;;;;;22.33;12.50;;;;;;;4.14;51.11;101776.19;5095330;28;20023;-64
2022/03/03 05:25:10;;;;;;;22.60;14.30;;;;;;;4.03;50.95;101778.28;5094875;28;20396;-64
2022/03/03 05:27:36;;;;;;;28.17;15.05;;;;;;;3.97;51.73;101777.94;5076976;28;20048;-65
2022/03/03 05:30:02;;;;;;;20.40;12.00;;;;;;;3.87;51.47;101770.44;5095191;28;20032;-65
2022/03/03 05:32:27;;;;;;;22.33;11.85;;;;;;;3.79;51.93;101767.44;5094952;28;20490;-65
2022/03/03 05:34:52;;;;;;;19.75;12.10;;;;;;;3.74;52.41;101784.59;5095005;28;20515;-65
2022/03/03 05:37:22;;;;;;;23.30;11.48;;;;;;;3.64;52.63;101790.13;5094999;28;20144;-64
2022/03/03 05:39:52;;;;;;;20.05;12.45;;;;;;;3.58;52.42;101795.03;5095111;28;20031;-65
2022/03/03 05:42:20;;;;;;;21.20;11.73;;;;;;;3.45;53.27;101781.28;5094788;28;20473;-64
2022/03/03 05:44:47;;;;;;;20.73;12.13;;;;;;;3.37;53.06;101784.31;5094747;28;20059;-65
2022/03/03 05:47:13;;;;;;;19.85;11.75;;;;;;;3.41;53.46;101788.88;5094623;28;20024;-65
2022/03/03 05:49:40;;;;;;;20.05;11.45;;;;;;;3.44;52.96;101789.06;5094846;28;20028;-65
2022/03/03 05:52:09;;;;;;;24.70;12.13;;;;;;;3.37;53.74;101786.91;5094749;28;20024;-64
2022/03/03 05:54:36;;;;;;;20.88;12.43;;;;;;;3.29;53.53;101796.03;5094825;28;20032;-64
2022/03/03 05:57:06;;;;;;;20.33;12.35;;;;;;;3.29;53.45;101789.09;5094617;28;20028;-64
2022/03/03 05:59:34;;;;;;;21.77;12.63;;;;;;;3.25;53.54;101790.66;5094585;28;20051;-64
2022/03/03 06:01:59;;;;;;;18.70;11.43;;;;;;;3.19;53.67;101792.03;5094408;28;20085;-64
2022/03/03 06:04:29;;;;;;;23.65;11.73;;;;;;;3.19;53.65;101782.47;5094379;28;20024;-64
2022/03/03 06:07:07;;;;;;;22.67;12.43;;;;;;;3.18;53.79;101780.69;5076190;28;20028;-64
2022/03/03 06:09:35;;;;;;;26.25;12.10;;;;;;;3.12;54.20;101782.94;5094569;28;20020;-64
2022/03/03 06:12:18;;;;;;;21.83;11.85;;;;;;;3.19;53.88;101786.81;5094275;28;20031;-64
2022/03/03 06:14:54;;;;;;;;;;;;;;;3.33;52.27;101791.06;5094427;28;20059;-65
2022/03/03 06:17:23;;;;;;;19.23;11.80;;;;;;;3.23;53.81;101780.94;5093921;28;19912;-65
2022/03/03 06:19:49;;;;;;;20.50;12.73;;;;;;;3.19;54.24;101786.81;5093712;28;20548;-64
2022/03/03 06:22:15;;;;;;;21.98;12.68;;;;;;;3.12;54.10;101787.25;5075453;28;20039;-64
2022/03/03 06:24:41;;;;;;;21.63;12.80;;;;;;;3.04;55.17;101788.53;5093211;28;20465;-65
2022/03/03 06:27:08;;;;;;;25.10;13.25;;;;;;;2.95;55.07;101784.59;5093228;28;20032;-65
2022/03/03 06:29:34;;;;;;;23.42;12.57;;;;;;;2.93;55.10;101790.56;5093576;28;20115;-64
2022/03/03 06:32:00;;;;;;;21.10;12.90;;;;;;;2.96;55.22;101793.34;5093287;28;20059;-65
2022/03/03 06:34:26;;;;;;;25.95;12.43;;;;;;;2.99;55.32;101798.72;5093504;28;20039;-65
2022/03/03 06:36:51;;;;;;;20.38;12.38;;;;;;;3.10;54.69;101796.75;5093374;28;20024;-64
2022/03/03 06:39:17;;;;;;;20.75;12.02;;;;;;;3.21;54.63;101795.59;5093250;28;20028;-64
2022/03/03 06:41:44;;;;;;;20.85;12.38;;;;;;;3.25;54.91;101792.34;5093236;28;20024;-65
2022/03/03 06:44:09;;;;;;;18.70;11.82;;;;;;;3.29;54.22;101789.09;5093001;28;20450;-64
2022/03/03 06:46:35;;;;;;;18.20;11.77;;;;;;;3.32;54.17;101794.50;5093242;28;20024;-64
2022/03/03 06:49:00;;;;;;;22.67;12.57;;;;;;;3.42;54.51;101794.19;5093340;28;20030;-64
2022/03/03 06:51:33;;;;;;;21.88;13.05;;;;;;;3.49;54.26;101792.81;5093289;28;20361;-64
2022/03/03 06:54:02;;;;;;;21.20;11.93;;;;;;;3.46;53.77;101790.03;5092636;28;20036;-64
2022/03/03 06:56:30;;;;;;;19.23;12.23;;;;;;;3.57;53.79;101793.25;5092777;28;20032;-65
2022/03/03 06:58:59;;;;;;;23.00;12.63;;;;;;;3.70;53.67;101799.19;5092813;28;20028;-64
2022/03/03 07:01:34;;;;;;;58.47;26.35;;;;;;;3.97;53.44;101796.25;5092868;28;20127;-64
2022/03/03 07:03:59;;;;;;;28.05;15.82;;;;;;;4.24;52.48;101800.31;5092905;28;20032;-64
2022/03/03 07:06:26;;;;;;;23.73;12.73;;;;;;;4.50;52.31;101806.88;5092852;28;20485;-64
2022/03/03 07:08:55;;;;;;;23.08;12.82;;;;;;;4.71;53.13;101808.75;5092903;28;20487;-64
2022/03/03 07:11:23;;;;;;;20.55;12.77;;;;;;;4.91;51.26;101812.38;5092745;28;20099;-64
2022/03/03 07:13:49;;;;;;;21.80;12.95;;;;;;;5.03;51.29;101819.09;5093045;28;20030;-64
2022/03/03 07:16:25;;;;;;;23.88;13.13;;;;;;;5.26;50.46;101819.31;5092753;28;20103;-64
2022/03/03 07:18:52;;;;;;;22.63;12.68;;;;;;;5.48;49.54;101811.66;5092905;28;20028;-64
2022/03/03 07:21:42;;;;;;;22.38;13.27;;;;;;;5.74;49.39;101807.63;5092829;28;20036;-64
2022/03/03 07:24:44;;;;;;;22.15;13.20;;;;;;;6.02;48.97;101817.66;5088844;28;20590;-63
2022/03/03 07:27:22;;;;;;;20.08;12.02;;;;;;;6.21;47.27;101814.13;5052562;28;20108;-65
2022/03/03 07:29:55;;;;;;;21.05;12.45;;;;;;;6.41;47.67;101811.47;5052691;28;20067;-64
2022/03/03 07:32:36;;;;;;;21.50;13.65;;;;;;;6.63;47.29;101823.78;5052336;28;20022;-64
2022/03/03 07:35:14;;;;;;;21.60;12.88;;;;;;;6.74;47.25;101814.63;5052698;28;20033;-64
2022/03/03 07:37:52;;;;;;;20.33;12.75;;;;;;;6.85;45.70;101815.97;5052394;28;20032;-64
2022/03/03 07:40:17;;;;;;;21.50;13.13;;;;;;;6.91;45.04;101816.22;5052905;28;20123;-64
2022/03/03 07:42:44;;;;;;;20.98;12.10;;;;;;;7.00;44.60;101816.59;5052156;28;20036;-65
2022/03/03 07:45:11;;;;;;;23.38;12.05;;;;;;;7.12;45.71;101813.56;5052417;28;20378;-64
2022/03/03 07:47:36;;;;;;;21.40;12.18;;;;;;;7.22;44.58;101807.84;5052336;28;20409;-65
2022/03/03 07:50:04;;;;;;;20.75;12.38;;;;;;;7.32;45.45;101816.97;5052260;28;20158;-64
2022/03/03 07:52:29;;;;;;;20.83;12.88;;;;;;;7.36;43.56;101810.09;5052635;28;20025;-64
2022/03/03 07:54:55;;;;;;;20.70;12.30;;;;;;;7.44;42.31;101816.56;5052292;28;20029;-64
2022/03/03 07:57:22;;;;;;;19.48;11.98;;;;;;;7.57;43.25;101823.19;5052073;28;20029;-65
2022/03/03 07:59:54;;;;;;;22.25;12.23;;;;;;;7.67;43.71;101818.38;5052212;28;20095;-64
2022/03/03 08:02:31;;;;;;;19.20;11.85;;;;;;;7.85;42.60;101818.16;5065738;28;20049;-65
2022/03/03 08:05:00;;;;;;;26.95;12.25;;;;;;;8.00;42.53;101820.44;5063595;28;20462;-64
2022/03/03 08:07:27;;;;;;;19.38;11.85;;;;;;;8.17;42.04;101814.06;5061536;28;20033;-64
2022/03/03 08:09:59;;;;;;;21.33;11.48;;;;;;;8.35;41.71;101821.75;5056311;28;20470;-66
2022/03/03 08:12:28;;;;;;;18.77;12.38;;;;;;;8.56;42.18;101828.59;5056701;28;20355;-65
2022/03/03 08:14:53;;;;;;;20.42;11.55;;;;;;;8.73;41.63;101828.34;5056080;28;20086;-64
2022/03/03 08:17:19;;;;;;;23.00;11.80;;;;;;;8.92;40.12;101832.50;5055946;28;20032;-64
2022/03/03 08:19:45;;;;;;;20.83;11.70;;;;;;;9.01;39.63;101826.66;5055816;28;20059;-64
2022/03/03 08:22:13;;;;;;;16.90;11.50;;;;;;;9.22;39.54;101821.16;5055756;28;20090;-64
2022/03/03 08:24:43;;;;;;;22.08;12.30;;;;;;;9.39;39.50;101819.06;5055970;28;20326;-65
2022/03/03 08:27:13;;;;;;;19.60;12.07;;;;;;;9.53;38.64;101826.53;5095904;28;20032;-64
2022/03/03 08:29:39;;;;;;;19.40;11.63;;;;;;;9.58;38.06;101824.03;5095795;28;20046;-64
2022/03/03 08:32:11;;;;;;;21.65;12.02;;;;;;;9.60;37.54;101817.09;5077533;28;20020;-64
2022/03/03 08:35:07;;;;;;;19.73;12.10;;;;;;;9.69;38.06;101813.81;5096078;28;20067;-64
2022/03/03 08:37:36;;;;;;;22.58;12.25;;;;;;;9.89;36.99;101815.31;5095655;28;20438;-65
2022/03/03 08:40:06;;;;;;;20.92;11.90;;;;;;;9.85;36.59;101808.16;5095609;28;20470;-64
2022/03/03 08:42:38;;;;;;;20.75;12.02;;;;;;;9.86;37.57;101804.66;5077413;28;20064;-64
2022/03/03 08:45:06;;;;;;;22.30;12.73;;;;;;;9.95;36.74;101814.59;5095521;28;20032;-65
2022/03/03 08:47:32;;;;;;;19.30;11.90;;;;;;;10.16;36.89;101823.13;5095433;28;20117;-64
2022/03/03 08:50:09;;;;;;;18.88;12.45;;;;;;;10.19;36.86;101815.28;5095382;28;20028;-65
2022/03/03 08:52:38;;;;;;;17.80;11.88;;;;;;;10.21;36.09;101813.56;5095527;28;20032;-65
2022/03/03 08:55:05;;;;;;;20.30;11.75;;;;;;;10.47;36.50;101816.94;5095333;28;20036;-65
2022/03/03 08:57:30;;;;;;;20.17;11.98;;;;;;;10.69;35.12;101817.50;5095199;28;20028;-64
2022/03/03 08:59:56;;;;;;;19.27;11.88;;;;;;;10.80;34.80;101818.69;5077228;28;20495;-65
2022/03/03 09:02:22;;;;;;;18.50;11.57;;;;;;;10.77;34.58;101813.31;5095273;28;20066;-64
2022/03/03 09:04:48;;;;;;;18.30;11.45;;;;;;;10.64;34.95;101808.59;5095396;28;20091;-64
2022/03/03 09:07:14;;;;;;;16.70;11.20;;;;;;;10.45;35.04;101812.50;5095291;28;20016;-64
2022/03/03 09:09:40;;;;;;;19.45;12.48;;;;;;;10.52;35.86;101819.72;5094879;28;20321;-64
2022/03/03 09:12:06;;;;;;;17.70;11.50;;;;;;;10.78;34.69;101815.09;5095131;28;20188;-64
2022/03/03 09:14:32;;;;;;;17.63;11.57;;;;;;;10.94;34.51;101814.63;5076779;28;20543;-64
2022/03/03 09:16:57;;;;;;;20.05;12.23;;;;;;;11.01;33.88;101816.59;5094577;28;20034;-64
2022/03/03 09:19:23;;;;;;;20.48;11.35;;;;;;;11.17;33.97;101806.34;5094806;28;20078;-64
2022/03/03 09:21:49;;;;;;;18.27;11.75;;;;;;;11.49;34.28;101809.75;5094728;28;20077;-64
2022/03/03 09:24:14;;;;;;;19.90;11.40;;;;;;;11.74;33.36;101806.78;5094884;28;20499;-64
2022/03/03 09:26:40;;;;;;;18.60;11.43;;;;;;;12.11;32.38;101806.69;5094566;28;20040;-64
2022/03/03 09:29:05;;;;;;;17.10;11.20;;;;;;;12.21;31.57;101801.59;5094796;28;20020;-64
2022/03/03 09:31:37;;;;;;;20.40;12.45;;;;;;;12.29;31.99;101799.09;5094668;28;20027;-64
2022/03/03 09:34:02;;;;;;;19.75;12.13;;;;;;;12.47;32.11;101795.91;5094409;28;20028;-64
2022/03/03 09:36:28;;;;;;;20.00;12.40;;;;;;;12.47;30.64;101802.09;5094361;28;20039;-64
2022/03/03 09:38:54;;;;;;;19.52;12.02;;;;;;;12.54;31.17;101803.06;5094347;28;20023;-64
2022/03/03 09:41:19;;;;;;;18.48;12.23;;;;;;;12.62;30.68;101803.22;5094408;28;20032;-64
2022/03/03 09:43:45;;;;;;;19.92;12.15;;;;;;;12.76;30.66;101799.03;5094345;28;20496;-64
2022/03/03 09:46:11;;;;;;;25.35;12.70;;;;;;;12.88;30.66;101791.28;5076105;28;20024;-64
2022/03/03 09:48:37;;;;;;;22.50;12.45;;;;;;;12.82;30.37;101799.16;5094145;28;20473;-65
2022/03/03 09:51:03;;;;;;;18.58;11.30;;;;;;;13.06;30.48;101782.75;5094027;28;20118;-64
2022/03/03 09:53:29;;;;;;;18.40;11.55;;;;;;;13.26;29.93;101799.88;5094082;28;20073;-65
2022/03/03 09:55:54;;;;;;;19.05;12.10;;;;;;;13.43;30.14;101791.28;5094933;28;20020;-64
2022/03/03 09:58:20;;;;;;;18.02;12.23;;;;;;;13.55;28.89;101786.16;5078835;28;20484;-64
2022/03/03 10:00:46;;;;;;;20.67;11.77;;;;;;;13.69;29.34;101797.84;5097086;28;20063;-64
2022/03/03 10:03:14;;;;;;;18.75;11.75;;;;;;;13.78;28.93;101792.63;5094381;28;20028;-64
2022/03/03 10:05:45;;;;;;;20.02;11.27;;;;;;;14.01;28.33;101786.75;5093777;28;20392;-64
2022/03/03 10:08:23;;;;;;;20.08;11.52;;;;;;;14.33;29.02;101792.41;5093671;28;20031;-64
2022/03/03 10:10:54;;;;;;;20.23;11.82;;;;;;;14.57;28.56;101791.78;5093778;28;20028;-64
2022/03/03 10:13:20;;;;;;;18.60;12.27;;;;;;;14.85;27.01;101792.03;5093679;28;20032;-64
2022/03/03 10:15:52;;;;;;;18.50;11.90;;;;;;;15.42;27.16;101793.34;5093818;28;20073;-65
2022/03/03 10:18:19;;;;;;;21.98;11.95;;;;;;;15.67;27.02;101778.38;5093483;28;20020;-65
2022/03/03 10:20:44;;;;;;;21.42;11.65;;;;;;;15.85;26.02;101782.94;5093533;28;20084;-64
2022/03/03 10:23:11;;;;;;;18.73;12.13;;;;;;;16.02;25.45;101782.09;5093508;28;20107;-62
2022/03/03 10:25:41;;;;;;;16.83;11.52;;;;;;;15.87;25.53;101778.50;5093132;28;20131;-62
2022/03/03 10:28:20;;;;;;;16.40;11.18;;;;;;;16.12;26.85;101780.34;5075508;28;20028;-63
2022/03/03 10:31:08;;;;;;;16.10;11.80;;;;;;;16.40;26.73;101775.97;5092962;28;20024;-64
2022/03/03 10:33:39;;;;;;;17.35;11.63;;;;;;;16.57;24.63;101767.09;5093272;28;20103;-63
2022/03/03 10:36:11;;;;;;;19.85;11.75;;;;;;;16.76;24.91;101774.25;5093226;28;20021;-63
2022/03/03 10:39:03;;;;;;;18.08;11.60;;;;;;;16.75;25.83;101776.03;5093241;28;20024;-63
2022/03/03 10:41:42;;;;;;;19.95;11.95;;;;;;;16.19;24.86;101770.59;5093639;28;20028;-65
2022/03/03 10:44:16;;;;;;;16.73;11.63;;;;;;;16.10;25.40;101766.13;5093446;28;20027;-66
2022/03/03 10:47:05;;;;;;;15.07;10.93;;;;;;;16.40;26.41;101765.31;5074848;28;20227;-64
2022/03/03 10:49:31;;;;;;;14.98;10.38;;;;;;;16.51;24.67;101771.53;5092943;28;20032;-65
2022/03/03 10:52:09;;;;;;;17.58;10.45;;;;;;;16.72;24.31;101762.69;5093104;28;20028;-64
2022/03/03 10:55:05;;;;;;;15.57;10.60;;;;;;;16.83;24.00;101769.78;5092893;28;20335;-64
2022/03/03 10:57:39;;;;;;;14.85;9.93;;;;;;;16.47;23.21;101763.53;5082084;28;20044;-64
2022/03/03 11:00:09;;;;;;;18.02;11.07;;;;;;;16.50;24.93;101764.44;5092969;28;20048;-64
2022/03/03 11:02:37;;;;;;;14.68;10.60;;;;;;;16.41;24.04;101756.41;5093161;28;20024;-65
2022/03/03 11:05:03;;;;;;;16.83;11.05;;;;;;;16.43;24.39;101754.63;5092756;28;20036;-66
2022/03/03 11:07:33;;;;;;;16.23;11.43;;;;;;;16.47;24.97;101760.84;5093019;28;20035;-65
2022/03/03 11:10:03;;;;;;;19.52;10.65;;;;;;;16.37;24.05;101756.41;5092766;28;20028;-66
2022/03/03 11:12:29;;;;;;;17.55;10.63;;;;;;;16.22;24.88;101755.47;5092602;28;20032;-65
2022/03/03 11:14:58;;;;;;;17.63;11.18;;;;;;;16.44;24.08;101761.72;5092633;28;20070;-65
2022/03/03 11:17:41;;;;;;;18.70;10.57;;;;;;;16.56;23.45;101758.19;5089911;28;20039;-67
2022/03/03 11:20:10;;;;;;;13.57;10.20;;;;;;;16.39;23.42;101749.28;5074444;28;20427;-65
2022/03/03 11:22:38;;;;;;;15.75;10.05;;;;;;;16.28;22.04;101758.16;5092408;28;20472;-67